Terminal Aerodrome Forecast
Issued by NWS

Home | Current Version | Previous Version | Graphics & Text | Print | Product List | Glossary On
Versions: 1 2 3 4 5 6 7 8 9 10 11 12 13 14 15 16 17 18
000
FTUS43 KICT 171152
TAFCNU
TAF
KCNU 171152Z 1712/1812 10003KT P6SM VCSH SCT060 OVC250
      TEMPO 1712/1714 -TSRA OVC060CB
     FM172200 15005KT P6SM VCTS BKN050CB
     FM180600 VRB05KT P6SM BKN100=

USA.gov is the U.S. government's official web portal to all federal, state and local government web resources and services.